Time;durP1;ratioP1;P1;durP2;ratioP2;P2;SDS_P1;SDS_P2;PMS_P1;PMS_P2;Temp;Humidity;BMP_temperature;BMP_pressure;BME280_temperature;BME280_humidity;BME280_pressure;Samples;Min_cycle;Max_cycle;Signal;HPM_P1;HPM_P2
2023/09/19 00:00:27;;;;;;;2.25;1.33;;;19.30;99.90;;;;;;5019817;28;20259;-81
2023/09/19 00:02:59;;;;;;;3.50;1.33;;;19.30;99.90;;;;;;5033944;28;20217;-79
2023/09/19 00:05:27;;;;;;;4.18;1.48;;;19.30;99.90;;;;;;5023592;28;20291;-81
2023/09/19 00:07:54;;;;;;;2.75;1.00;;;19.30;99.90;;;;;;5019574;28;20209;-79
2023/09/19 00:10:24;;;;;;;2.15;1.15;;;19.20;99.90;;;;;;5017024;28;20299;-80
2023/09/19 00:12:59;;;;;;;3.22;1.70;;;19.20;99.90;;;;;;5015482;28;20177;-79
2023/09/19 00:15:28;;;;;;;3.80;1.20;;;19.30;99.90;;;;;;5014151;28;20212;-80
2023/09/19 00:17:55;;;;;;;3.45;1.45;;;19.40;99.90;;;;;;5018363;28;20217;-79
2023/09/19 00:20:23;;;;;;;2.25;1.30;;;19.30;99.90;;;;;;5028220;28;20213;-80
2023/09/19 00:22:51;;;;;;;3.35;1.30;;;19.30;99.90;;;;;;5014867;28;20211;-78
2023/09/19 00:25:18;;;;;;;2.13;1.15;;;19.30;99.90;;;;;;5023285;28;20205;-79
2023/09/19 00:27:44;;;;;;;2.53;1.38;;;19.30;99.90;;;;;;5019395;28;20204;-80
2023/09/19 00:30:19;;;;;;;2.20;1.48;;;19.20;99.90;;;;;;5017722;28;20212;-80
2023/09/19 00:32:47;;;;;;;3.50;1.17;;;19.10;99.90;;;;;;5014923;28;20212;-81
2023/09/19 00:35:16;;;;;;;1.63;0.90;;;19.10;99.90;;;;;;5018613;28;20263;-80
2023/09/19 00:37:42;;;;;;;4.82;1.33;;;19.00;99.90;;;;;;5016616;28;20208;-81
2023/09/19 00:40:11;;;;;;;3.45;1.40;;;19.00;99.90;;;;;;5018194;28;20216;-80
2023/09/19 00:42:47;;;;;;;7.22;1.25;;;19.00;99.90;;;;;;5017323;28;20169;-80
2023/09/19 00:45:15;;;;;;;5.25;1.55;;;19.00;99.90;;;;;;5011155;28;20276;-80
2023/09/19 00:47:51;;;;;;;2.72;0.95;;;19.00;99.90;;;;;;5017968;28;20722;-81
2023/09/19 00:50:19;;;;;;;7.78;2.38;;;19.00;99.90;;;;;;5014684;28;20721;-80
2023/09/19 00:52:47;;;;;;;4.07;1.45;;;19.00;99.90;;;;;;5008990;28;20745;-81
2023/09/19 00:55:15;;;;;;;4.43;1.70;;;19.10;99.90;;;;;;5015368;28;20209;-81
2023/09/19 00:57:41;;;;;;;3.03;1.25;;;19.10;99.90;;;;;;5020603;28;20169;-81
2023/09/19 01:00:12;;;;;;;2.58;1.33;;;19.10;99.90;;;;;;5017546;28;20187;-81
2023/09/19 01:02:37;;;;;;;3.90;1.10;;;19.10;99.90;;;;;;5015060;28;20227;-80
2023/09/19 01:05:04;;;;;;;2.28;1.30;;;19.10;99.90;;;;;;5017305;28;20212;-79
2023/09/19 01:07:31;;;;;;;3.13;1.10;;;19.10;99.90;;;;;;5011192;28;20227;-80
2023/09/19 01:10:00;;;;;;;1.88;1.20;;;19.10;99.90;;;;;;5014380;28;20631;-80
2023/09/19 01:12:47;;;;;;;1.55;1.20;;;19.00;99.90;;;;;;5015745;28;20181;-80
2023/09/19 01:15:21;;;;;;;2.15;1.00;;;18.90;99.90;;;;;;4972582;28;1098465;-80
2023/09/19 01:18:02;;;;;;;2.92;1.80;;;19.00;99.90;;;;;;5011147;28;20212;-80
2023/09/19 01:20:31;;;;;;;2.45;1.25;;;19.10;99.90;;;;;;4998349;28;20295;-80
2023/09/19 01:23:21;;;;;;;1.77;1.17;;;19.10;99.90;;;;;;5009687;28;20220;-79
2023/09/19 01:26:26;;;;;;;4.35;1.23;;;19.20;99.90;;;;;;5000272;28;20213;-79
2023/09/19 01:28:57;;;;;;;2.97;1.20;;;19.10;99.90;;;;;;5010180;28;20291;-80
2023/09/19 01:31:24;;;;;;;3.78;1.25;;;19.00;99.90;;;;;;5009274;28;20595;-80
2023/09/19 01:34:07;;;;;;;1.38;1.27;;;19.10;99.90;;;;;;5012962;28;20223;-78
2023/09/19 01:36:36;;;;;;;1.15;1.00;;;19.20;99.90;;;;;;5010825;28;20176;-80
2023/09/19 01:39:10;;;;;;;2.08;1.33;;;19.20;99.90;;;;;;5013494;28;20233;-79
2023/09/19 01:41:47;;;;;;;5.43;1.33;;;19.30;99.90;;;;;;5013961;28;20201;-80
2023/09/19 01:44:30;;;;;;;2.80;1.02;;;19.30;99.90;;;;;;5010286;28;20212;-80
2023/09/19 01:46:59;;;;;;;3.50;1.27;;;19.30;99.90;;;;;;5012359;28;20213;-80
2023/09/19 01:49:43;;;;;;;1.23;1.00;;;19.30;99.90;;;;;;5014509;28;20209;-80
2023/09/19 01:52:13;;;;;;;2.40;1.00;;;19.30;99.90;;;;;;5013369;28;20264;-79
2023/09/19 01:54:52;;;;;;;2.15;1.15;;;19.30;99.90;;;;;;5014713;28;20189;-80
2023/09/19 01:57:29;;;;;;;2.10;1.13;;;19.30;99.90;;;;;;5010837;28;20227;-81
2023/09/19 02:00:06;;;;;;;1.95;1.40;;;19.30;99.90;;;;;;5011390;28;20220;-80
2023/09/19 02:02:36;;;;;;;2.85;1.17;;;19.20;99.90;;;;;;5010488;28;20293;-80
2023/09/19 02:05:03;;;;;;;3.80;1.30;;;19.10;99.90;;;;;;5013572;28;20220;-80
2023/09/19 02:07:31;;;;;;;2.22;1.30;;;19.10;99.90;;;;;;5014479;28;20257;-80
2023/09/19 02:09:59;;;;;;;2.83;1.10;;;19.10;99.90;;;;;;5012730;28;20197;-81
2023/09/19 02:12:24;;;;;;;1.15;1.02;;;19.00;99.90;;;;;;5030460;28;20188;-80
2023/09/19 02:14:50;;;;;;;1.65;1.17;;;19.00;99.90;;;;;;5027029;28;20209;-80
2023/09/19 02:17:17;;;;;;;4.30;1.67;;;19.00;99.90;;;;;;5013239;28;20256;-79
2023/09/19 02:19:42;;;;;;;3.15;1.27;;;19.00;99.90;;;;;;5007078;28;20699;-80
2023/09/19 02:22:10;;;;;;;2.53;1.20;;;18.90;99.90;;;;;;5019347;28;20228;-80
2023/09/19 02:24:38;;;;;;;2.83;1.33;;;18.90;99.90;;;;;;5016651;28;20184;-80
2023/09/19 02:27:05;;;;;;;2.53;1.35;;;18.90;99.90;;;;;;5013127;28;20205;-81
2023/09/19 02:29:33;;;;;;;2.75;1.45;;;18.90;99.90;;;;;;5012718;28;20219;-80
2023/09/19 02:31:58;;;;;;;1.63;1.40;;;18.90;99.90;;;;;;5012581;28;20265;-81
2023/09/19 02:34:25;;;;;;;1.85;1.50;;;18.90;99.90;;;;;;5011231;28;20224;-82
2023/09/19 02:36:53;;;;;;;2.88;1.25;;;18.90;99.90;;;;;;5006497;28;20525;-79
2023/09/19 02:39:19;;;;;;;2.83;1.20;;;18.90;99.90;;;;;;5013363;28;20173;-80
2023/09/19 02:41:45;;;;;;;3.28;1.30;;;18.80;99.90;;;;;;5009239;28;20206;-80
2023/09/19 02:44:12;;;;;;;2.35;1.40;;;18.90;99.90;;;;;;5009619;28;20212;-80
2023/09/19 02:46:37;;;;;;;1.58;1.25;;;18.80;99.90;;;;;;5011182;28;20265;-80
2023/09/19 02:49:06;;;;;;;3.75;2.13;;;18.80;99.90;;;;;;5009911;28;20683;-80
2023/09/19 02:51:33;;;;;;;3.80;1.75;;;18.80;99.90;;;;;;5011538;28;20228;-81
2023/09/19 02:54:03;;;;;;;10.27;5.63;;;18.80;99.90;;;;;;5031334;28;20215;-81
2023/09/19 02:56:30;;;;;;;3.13;1.95;;;18.80;99.90;;;;;;5015887;28;20567;-79
2023/09/19 02:58:56;;;;;;;2.45;1.35;;;18.80;99.90;;;;;;5015015;28;20213;-80
2023/09/19 03:01:22;;;;;;;6.38;2.28;;;18.80;99.90;;;;;;5025684;28;20205;-80
2023/09/19 03:03:48;;;;;;;3.00;1.70;;;18.80;99.90;;;;;;5015777;28;20300;-79
2023/09/19 03:06:14;;;;;;;2.63;1.02;;;18.80;99.90;;;;;;5032735;28;20651;-79
2023/09/19 03:08:42;;;;;;;2.45;1.00;;;18.80;99.90;;;;;;5015979;28;20209;-80
2023/09/19 03:11:39;;;;;;;1.73;1.05;;;18.80;99.90;;;;;;5017271;28;20224;-80
2023/09/19 03:14:05;;;;;;;1.42;0.98;;;18.80;99.90;;;;;;5009358;28;20776;-81
2023/09/19 03:16:31;;;;;;;2.83;1.48;;;18.80;99.90;;;;;;5002126;28;20205;-81
2023/09/19 03:18:58;;;;;;;2.20;1.05;;;18.70;99.90;;;;;;5013583;28;20665;-80
2023/09/19 03:21:24;;;;;;;3.15;1.08;;;18.80;99.90;;;;;;5010539;28;20169;-80
2023/09/19 03:24:18;;;;;;;2.28;1.10;;;18.80;99.90;;;;;;5032891;28;20220;-80
2023/09/19 03:26:45;;;;;;;2.22;0.90;;;18.70;99.90;;;;;;5029241;28;20450;-81
2023/09/19 03:29:10;;;;;;;3.55;1.00;;;18.70;99.90;;;;;;5014063;28;20264;-81
2023/09/19 03:31:36;;;;;;;1.52;0.80;;;18.70;99.90;;;;;;5013588;28;20651;-81
2023/09/19 03:34:03;;;;;;;4.80;1.23;;;18.70;99.90;;;;;;5019364;28;20209;-80
2023/09/19 03:36:30;;;;;;;2.30;1.10;;;18.70;99.90;;;;;;5018415;28;20203;-78
2023/09/19 03:38:55;;;;;;;1.33;0.90;;;18.70;99.90;;;;;;5015409;28;20264;-80
2023/09/19 03:41:21;;;;;;;3.00;0.90;;;18.70;99.90;;;;;;5019153;28;20209;-80
2023/09/19 03:43:47;;;;;;;1.15;0.90;;;18.60;99.90;;;;;;5016574;28;20212;-80
2023/09/19 03:46:14;;;;;;;1.23;0.80;;;18.60;99.90;;;;;;5036638;28;20209;-80
2023/09/19 03:48:40;;;;;;;2.17;0.90;;;18.70;99.90;;;;;;5015965;28;20611;-80
2023/09/19 03:51:06;;;;;;;1.90;0.77;;;18.60;99.90;;;;;;5010493;28;20200;-80
2023/09/19 03:53:31;;;;;;;0.70;0.70;;;18.60;99.90;;;;;;5008211;28;20285;-80
2023/09/19 03:55:57;;;;;;;2.05;0.80;;;18.70;99.90;;;;;;5035202;28;20216;-80
2023/09/19 03:58:23;;;;;;;2.00;0.77;;;18.60;99.90;;;;;;5014048;28;20288;-80
2023/09/19 04:00:50;;;;;;;1.88;1.15;;;18.70;99.90;;;;;;5014170;28;20266;-78
2023/09/19 04:03:20;;;;;;;0.80;0.80;;;18.70;99.90;;;;;;5016711;28;20192;-78
2023/09/19 04:05:47;;;;;;;1.88;0.70;;;18.60;99.90;;;;;;5009796;28;20214;-80
2023/09/19 04:08:13;;;;;;;2.17;0.60;;;18.60;99.90;;;;;;5035412;28;20686;-80
2023/09/19 04:10:41;;;;;;;2.92;0.93;;;18.60;99.90;;;;;;5034598;28;20509;-78
2023/09/19 04:13:07;;;;;;;2.35;0.90;;;18.60;99.90;;;;;;5017548;28;20212;-81
2023/09/19 04:15:33;;;;;;;1.42;0.90;;;18.60;99.90;;;;;;5034851;28;20221;-80
2023/09/19 04:17:58;;;;;;;1.27;1.02;;;18.60;99.90;;;;;;5019692;28;20213;-80
2023/09/19 04:20:24;;;;;;;2.22;0.95;;;18.60;99.90;;;;;;5026265;28;20201;-79
2023/09/19 04:22:50;;;;;;;3.92;1.02;;;18.60;99.90;;;;;;5016350;28;20297;-79
2023/09/19 04:25:15;;;;;;;0.93;0.90;;;18.50;99.90;;;;;;5034547;28;20236;-80
2023/09/19 04:27:44;;;;;;;1.02;0.75;;;18.40;99.90;;;;;;5022456;28;20672;-79
2023/09/19 04:30:11;;;;;;;1.02;0.93;;;18.40;99.90;;;;;;5012784;28;20196;-80
2023/09/19 04:32:39;;;;;;;1.52;0.80;;;18.40;99.90;;;;;;5011611;28;20216;-80
2023/09/19 04:35:09;;;;;;;2.63;0.85;;;18.40;99.90;;;;;;5026927;28;20221;-80
2023/09/19 04:37:40;;;;;;;3.13;0.80;;;18.40;99.90;;;;;;5018180;28;20574;-80
2023/09/19 04:40:12;;;;;;;1.23;0.80;;;18.40;99.90;;;;;;5011404;28;20231;-80
2023/09/19 04:42:39;;;;;;;1.10;0.80;;;18.30;99.90;;;;;;5014938;28;21031;-80
2023/09/19 04:45:05;;;;;;;0.68;0.68;;;18.30;99.90;;;;;;5034518;28;20609;-80
2023/09/19 04:47:30;;;;;;;1.42;0.80;;;18.30;99.90;;;;;;5034109;28;20244;-80
2023/09/19 04:49:58;;;;;;;1.02;0.90;;;18.20;99.90;;;;;;5012986;28;20256;-80
2023/09/19 04:52:24;;;;;;;0.95;0.80;;;18.20;99.90;;;;;;5009029;28;20571;-80
2023/09/19 04:54:50;;;;;;;4.00;0.90;;;18.20;99.90;;;;;;5028028;28;20201;-78
2023/09/19 04:57:15;;;;;;;1.80;0.95;;;18.20;99.90;;;;;;5014124;28;20173;-79
2023/09/19 04:59:41;;;;;;;2.08;0.60;;;18.20;99.90;;;;;;5013337;28;20675;-79
2023/09/19 05:02:10;;;;;;;3.78;1.77;;;18.20;99.90;;;;;;5008994;28;20296;-80
2023/09/19 05:04:35;;;;;;;3.90;2.67;;;18.20;99.90;;;;;;5015385;28;20215;-80
2023/09/19 05:07:03;;;;;;;2.28;1.42;;;18.20;99.90;;;;;;5030913;28;20284;-80
2023/09/19 05:09:29;;;;;;;2.50;1.20;;;18.20;99.90;;;;;;5016737;28;20177;-80
2023/09/19 05:11:56;;;;;;;1.95;0.90;;;18.20;99.90;;;;;;5011008;28;20224;-78
2023/09/19 05:14:22;;;;;;;1.27;0.80;;;18.20;99.90;;;;;;5016060;28;20225;-78
2023/09/19 05:16:48;;;;;;;1.25;0.80;;;18.30;99.90;;;;;;5016413;28;20216;-78
2023/09/19 05:19:13;;;;;;;2.08;1.20;;;18.20;99.90;;;;;;5015965;28;20608;-80
2023/09/19 05:21:39;;;;;;;2.03;0.90;;;18.20;99.90;;;;;;5016977;28;20212;-80
2023/09/19 05:24:06;;;;;;;2.15;0.82;;;18.30;99.90;;;;;;5020685;28;20261;-80
2023/09/19 05:26:35;;;;;;;1.48;0.85;;;18.30;99.90;;;;;;5019695;28;20709;-79
2023/09/19 05:29:02;;;;;;;0.90;0.70;;;18.40;99.90;;;;;;5019055;28;20209;-80
2023/09/19 05:31:27;;;;;;;3.17;1.02;;;18.50;99.90;;;;;;5012360;28;20217;-79
2023/09/19 05:33:55;;;;;;;2.30;1.50;;;18.50;99.90;;;;;;5014455;28;20671;-81
2023/09/19 05:36:20;;;;;;;2.20;1.02;;;18.50;99.90;;;;;;5010886;28;20201;-80
2023/09/19 05:38:49;;;;;;;2.80;1.08;;;18.60;99.90;;;;;;5012565;28;20243;-80
2023/09/19 05:41:15;;;;;;;3.63;1.20;;;18.60;99.90;;;;;;5016103;28;20355;-81
2023/09/19 05:43:41;;;;;;;2.40;1.17;;;18.70;99.90;;;;;;5031112;28;20878;-80
2023/09/19 05:46:08;;;;;;;3.97;1.33;;;18.90;99.90;;;;;;5016705;28;20227;-80
2023/09/19 05:48:34;;;;;;;0.93;0.90;;;19.10;99.90;;;;;;5008593;28;20554;-81
2023/09/19 05:51:01;;;;;;;2.78;1.10;;;19.30;99.90;;;;;;5014916;28;20228;-80
2023/09/19 05:53:27;;;;;;;2.30;1.17;;;19.40;99.90;;;;;;5013012;28;20213;-79
2023/09/19 05:55:55;;;;;;;2.05;1.23;;;19.20;99.90;;;;;;5016066;28;20209;-79
2023/09/19 05:58:21;;;;;;;1.05;0.90;;;19.60;99.90;;;;;;5030273;28;20308;-80
2023/09/19 06:00:48;;;;;;;2.67;1.05;;;20.00;99.90;;;;;;5014465;28;20195;-78
2023/09/19 06:03:14;;;;;;;1.70;1.00;;;20.30;99.90;;;;;;5014790;28;20185;-80
2023/09/19 06:05:40;;;;;;;2.67;0.93;;;20.90;99.90;;;;;;5014306;28;20224;-80
2023/09/19 06:08:07;;;;;;;3.67;1.17;;;21.20;99.90;;;;;;5013562;28;20213;-80
2023/09/19 06:10:34;;;;;;;4.40;1.30;;;21.50;99.90;;;;;;5013337;28;20303;-80
2023/09/19 06:13:02;;;;;;;2.63;1.08;;;21.70;99.90;;;;;;5014433;28;20217;-80
2023/09/19 06:15:28;;;;;;;2.42;0.90;;;22.20;99.90;;;;;;5017563;28;20568;-80
2023/09/19 06:17:56;;;;;;;1.67;1.00;;;22.40;99.90;;;;;;5017007;28;20270;-80
2023/09/19 06:20:23;;;;;;;2.22;1.17;;;22.90;99.90;;;;;;5013482;28;20274;-80
2023/09/19 06:22:49;;;;;;;1.80;0.50;;;22.90;99.90;;;;;;5014238;28;20204;-79
2023/09/19 06:25:19;;;;;;;3.88;1.00;;;22.80;99.90;;;;;;5011101;28;20223;-80
2023/09/19 06:27:49;;;;;;;2.88;1.27;;;22.70;99.90;;;;;;5015825;28;20216;-80
2023/09/19 06:30:15;;;;;;;2.90;1.20;;;23.30;99.90;;;;;;5011059;28;20570;-81
2023/09/19 06:32:44;;;;;;;2.22;1.15;;;23.90;99.90;;;;;;5019816;28;20211;-81
2023/09/19 06:35:14;;;;;;;2.08;0.85;;;24.10;99.90;;;;;;5029250;28;20208;-81
2023/09/19 06:37:41;;;;;;;3.95;1.55;;;24.90;99.90;;;;;;5016262;28;20231;-80
2023/09/19 06:40:14;;;;;;;1.75;1.00;;;25.70;99.90;;;;;;5011745;28;20645;-78
2023/09/19 06:42:47;;;;;;;4.15;1.52;;;26.50;99.90;;;;;;5019271;28;20529;-78
2023/09/19 06:45:17;;;;;;;2.15;1.35;;;27.40;99.90;;;;;;5026234;28;20572;-79
2023/09/19 06:47:49;;;;;;;6.53;1.52;;;27.80;99.90;;;;;;5016764;28;20588;-78
2023/09/19 06:50:18;;;;;;;2.08;1.10;;;28.20;99.90;;;;;;5009400;28;20312;-79
2023/09/19 06:52:45;;;;;;;6.03;1.65;;;28.80;99.90;;;;;;5006778;28;20201;-79
2023/09/19 06:55:13;;;;;;;1.60;1.20;;;29.60;99.90;;;;;;5007806;28;20213;-79
2023/09/19 06:57:40;;;;;;;2.60;1.38;;;30.00;99.90;;;;;;5010064;28;20208;-79
2023/09/19 07:00:15;;;;;;;1.85;1.30;;;30.90;99.90;;;;;;5010457;28;20172;-80
2023/09/19 07:02:41;;;;;;;1.90;1.05;;;30.80;99.90;;;;;;5002074;28;20255;-79
2023/09/19 07:05:07;;;;;;;3.13;1.10;;;30.10;99.90;;;;;;5022344;28;20598;-79
2023/09/19 07:07:34;;;;;;;2.47;1.75;;;30.40;99.90;;;;;;5010065;28;20213;-78
2023/09/19 07:10:05;;;;;;;2.88;1.30;;;30.30;99.90;;;;;;5017740;28;20221;-80
2023/09/19 07:12:32;;;;;;;1.17;1.00;;;30.20;99.90;;;;;;5036495;28;20177;-79
2023/09/19 07:14:58;;;;;;;4.03;1.30;;;30.00;99.90;;;;;;5033100;28;20217;-79
2023/09/19 07:17:24;;;;;;;1.67;0.98;;;30.40;99.90;;;;;;5020225;28;20231;-79
2023/09/19 07:19:50;;;;;;;2.38;1.00;;;28.40;99.90;;;;;;5012085;28;20263;-77
2023/09/19 07:22:16;;;;;;;3.53;1.50;;;27.70;99.90;;;;;;5033591;28;20201;-80
2023/09/19 07:24:42;;;;;;;5.85;1.30;;;26.90;99.90;;;;;;5018253;28;20247;-79
2023/09/19 07:27:08;;;;;;;3.22;1.27;;;26.30;99.90;;;;;;5034518;28;20181;-79
2023/09/19 07:29:34;;;;;;;3.95;1.65;;;25.70;99.90;;;;;;5016030;28;20301;-77
2023/09/19 07:32:00;;;;;;;7.72;1.50;;;24.90;99.90;;;;;;5015215;28;20257;-79
2023/09/19 07:34:26;;;;;;;3.63;1.25;;;24.10;99.90;;;;;;5017910;28;20225;-79
2023/09/19 07:36:51;;;;;;;2.47;1.55;;;23.60;99.90;;;;;;5019307;28;20208;-81
2023/09/19 07:39:17;;;;;;;3.65;1.65;;;23.50;99.90;;;;;;5018290;28;20189;-80
2023/09/19 07:41:43;;;;;;;4.25;1.38;;;23.60;99.90;;;;;;5021270;28;20205;-80
2023/09/19 07:44:10;;;;;;;3.17;1.40;;;23.40;99.90;;;;;;5019386;28;20212;-81
2023/09/19 07:46:35;;;;;;;4.45;1.40;;;22.90;99.90;;;;;;5015276;28;20248;-79
2023/09/19 07:49:01;;;;;;;5.22;1.95;;;22.90;99.90;;;;;;5012559;28;20205;-81
2023/09/19 07:51:27;;;;;;;5.22;1.75;;;22.90;99.90;;;;;;5009100;28;20227;-79
2023/09/19 07:53:54;;;;;;;2.35;1.45;;;23.50;99.90;;;;;;5010175;28;20296;-79
2023/09/19 07:56:20;;;;;;;1.95;1.30;;;24.00;99.90;;;;;;5029300;28;20205;-80
2023/09/19 07:58:46;;;;;;;2.92;1.50;;;24.50;99.90;;;;;;5013973;28;20212;-80
2023/09/19 08:01:13;;;;;;;3.95;1.73;;;24.60;99.90;;;;;;5015635;28;20581;-78
2023/09/19 08:03:40;;;;;;;2.75;1.42;;;24.60;99.90;;;;;;5015531;28;20568;-77
2023/09/19 08:06:07;;;;;;;4.13;1.67;;;24.60;99.90;;;;;;5012093;28;20216;-81
2023/09/19 08:08:39;;;;;;;4.25;1.35;;;24.50;99.90;;;;;;5014336;28;20295;-82
2023/09/19 08:11:12;;;;;;;3.67;1.50;;;24.10;99.90;;;;;;5017309;28;20205;-80
2023/09/19 08:13:43;;;;;;;4.45;1.30;;;24.40;99.90;;;;;;5033265;28;20302;-80
2023/09/19 08:16:14;;;;;;;3.22;1.70;;;24.60;99.90;;;;;;5031251;28;20689;-76
2023/09/19 08:18:40;;;;;;;5.05;1.67;;;24.00;99.90;;;;;;5028773;28;20659;-81
2023/09/19 08:21:11;;;;;;;4.28;1.55;;;23.40;99.90;;;;;;5033946;28;20185;-80
2023/09/19 08:23:40;;;;;;;5.65;1.40;;;23.10;99.90;;;;;;5016302;28;20259;-78
2023/09/19 08:26:07;;;;;;;3.10;1.80;;;23.10;99.90;;;;;;5016519;28;20206;-80
2023/09/19 08:28:34;;;;;;;1.73;1.25;;;23.00;99.90;;;;;;5016039;28;20694;-80
2023/09/19 08:31:06;;;;;;;2.72;1.38;;;23.00;99.90;;;;;;5031755;28;20256;-80
2023/09/19 08:33:36;;;;;;;3.88;1.35;;;23.20;99.90;;;;;;5011459;28;20176;-77
2023/09/19 08:36:07;;;;;;;2.25;1.58;;;23.40;99.90;;;;;;5016327;28;20611;-80
2023/09/19 08:38:34;;;;;;;3.00;1.00;;;23.80;99.90;;;;;;5018291;28;20239;-81
2023/09/19 08:41:04;;;;;;;2.63;1.50;;;23.90;99.90;;;;;;5015680;28;20428;-80
2023/09/19 08:43:30;;;;;;;2.55;1.38;;;23.70;99.90;;;;;;5014540;28;20343;-80
2023/09/19 08:46:16;;;;;;;5.35;2.10;;;24.70;99.90;;;;;;5014898;28;20196;-79
2023/09/19 08:49:08;;;;;;;5.65;2.13;;;25.10;99.90;;;;;;5010231;28;20193;-78
2023/09/19 08:51:48;;;;;;;5.05;1.80;;;25.40;99.90;;;;;;5006406;28;20274;-79
2023/09/19 08:54:19;;;;;;;3.05;1.70;;;25.00;99.90;;;;;;5002947;28;20213;-79
2023/09/19 08:56:47;;;;;;;2.95;1.40;;;24.90;99.90;;;;;;5010216;28;20217;-80
2023/09/19 08:59:14;;;;;;;2.42;1.88;;;24.60;99.90;;;;;;5016297;28;20229;-78
2023/09/19 09:01:41;;;;;;;4.07;1.40;;;24.40;99.90;;;;;;5013760;28;20216;-80
2023/09/19 09:04:12;;;;;;;5.47;1.90;;;24.20;99.90;;;;;;5003659;28;20220;-79
2023/09/19 09:06:43;;;;;;;3.78;1.70;;;23.50;99.90;;;;;;5027380;28;20170;-80
2023/09/19 09:09:09;;;;;;;3.70;1.90;;;23.80;99.90;;;;;;5024272;28;20178;-78
2023/09/19 09:11:37;;;;;;;6.10;1.85;;;24.00;99.90;;;;;;5032211;28;20244;-79
2023/09/19 09:14:02;;;;;;;2.42;1.73;;;23.70;99.90;;;;;;5014758;28;20304;-79
2023/09/19 09:16:30;;;;;;;6.60;1.65;;;23.60;99.90;;;;;;5017078;28;20630;-80
2023/09/19 09:18:56;;;;;;;8.30;1.80;;;23.70;99.90;;;;;;5010647;28;20177;-79
2023/09/19 09:21:24;;;;;;;5.22;2.00;;;23.60;99.90;;;;;;5012143;28;20232;-79
2023/09/19 09:23:52;;;;;;;3.75;1.65;;;23.70;99.90;;;;;;5007695;28;20614;-78
2023/09/19 09:26:37;;;;;;;5.03;1.98;;;24.20;99.90;;;;;;5011571;28;20596;-80
2023/09/19 09:29:03;;;;;;;6.47;2.35;;;24.40;99.90;;;;;;5007459;28;20216;-80
2023/09/19 09:31:29;;;;;;;5.05;1.90;;;24.80;99.90;;;;;;5011395;28;20287;-79
2023/09/19 09:33:57;;;;;;;4.80;1.98;;;24.00;99.90;;;;;;5012161;28;20201;-79
2023/09/19 09:36:41;;;;;;;5.75;2.05;;;23.60;99.90;;;;;;5012793;28;20169;-80
2023/09/19 09:39:18;;;;;;;6.47;2.63;;;24.20;99.90;;;;;;5008631;28;20570;-80
2023/09/19 09:41:45;;;;;;;6.47;2.35;;;24.60;99.90;;;;;;5013318;28;20204;-80
2023/09/19 09:44:19;;;;;;;4.20;1.63;;;24.00;99.90;;;;;;5010953;28;20252;-79
2023/09/19 09:52:08;;;;;;;6.35;2.00;;;24.10;99.90;;;;;;5008336;28;21785;-79
2023/09/19 09:54:38;;;;;;;5.45;1.92;;;24.40;99.90;;;;;;5014915;28;20284;-79
2023/09/19 09:57:23;;;;;;;5.80;1.95;;;24.50;99.90;;;;;;5006176;28;20201;-79
2023/09/19 09:59:55;;;;;;;4.75;2.40;;;24.80;99.90;;;;;;5023196;28;20292;-78
2023/09/19 10:02:36;;;;;;;6.43;2.25;;;25.10;99.90;;;;;;5027144;28;20201;-79
2023/09/19 10:05:28;;;;;;;5.97;1.70;;;24.70;99.90;;;;;;5011781;28;20268;-79
2023/09/19 10:08:04;;;;;;;5.75;1.92;;;24.70;99.90;;;;;;5027528;28;20630;-79
2023/09/19 10:10:53;;;;;;;4.80;2.35;;;24.60;99.90;;;;;;5029542;28;20251;-79
2023/09/19 10:13:23;;;;;;;4.32;1.80;;;24.40;99.90;;;;;;5023838;28;20382;-79
2023/09/19 10:15:54;;;;;;;6.32;2.35;;;24.40;99.90;;;;;;5014016;28;20903;-79
2023/09/19 10:18:25;;;;;;;4.00;1.90;;;24.30;99.90;;;;;;5012607;28;20177;-80
2023/09/19 10:20:51;;;;;;;3.95;1.88;;;23.70;99.90;;;;;;5005633;28;20343;-78
2023/09/19 10:23:23;;;;;;;9.73;1.88;;;23.80;99.90;;;;;;5026358;28;20244;-79
2023/09/19 10:25:50;;;;;;;2.95;1.98;;;23.80;99.90;;;;;;5011509;28;20208;-77
2023/09/19 10:28:21;;;;;;;8.25;2.08;;;23.40;99.90;;;;;;5001607;28;20215;-78
2023/09/19 10:30:50;;;;;;;4.47;1.80;;;23.20;99.90;;;;;;5014438;28;20676;-80
2023/09/19 10:33:21;;;;;;;5.40;1.88;;;23.50;99.90;;;;;;5014388;28;20589;-79
2023/09/19 10:35:51;;;;;;;3.30;1.70;;;23.70;99.90;;;;;;5017580;28;20208;-79
2023/09/19 10:38:24;;;;;;;4.03;1.90;;;23.60;99.90;;;;;;5008164;28;20205;-78
2023/09/19 10:40:52;;;;;;;4.97;2.22;;;23.80;99.90;;;;;;5007103;28;20296;-78
2023/09/19 10:43:20;;;;;;;10.38;1.88;;;24.00;99.90;;;;;;5014020;28;20211;-79
2023/09/19 10:45:49;;;;;;;6.30;1.80;;;24.40;99.90;;;;;;5010933;28;20197;-80
2023/09/19 10:48:18;;;;;;;7.10;1.95;;;24.40;99.90;;;;;;5025725;28;20188;-80
2023/09/19 10:51:04;;;;;;;5.57;1.75;;;24.60;99.90;;;;;;5009836;28;20245;-79
2023/09/19 10:53:43;;;;;;;5.18;2.15;;;24.60;99.90;;;;;;5003051;28;20259;-80
2023/09/19 10:56:17;;;;;;;5.75;1.85;;;24.40;99.90;;;;;;5006777;28;20228;-80
2023/09/19 10:58:44;;;;;;;5.35;1.92;;;24.00;99.90;;;;;;5016177;28;20623;-80
2023/09/19 11:01:18;;;;;;;6.72;2.20;;;23.90;99.90;;;;;;5020257;28;20610;-80
2023/09/19 11:03:44;;;;;;;5.15;1.90;;;23.80;99.90;;;;;;5024637;28;20174;-80
2023/09/19 11:06:09;;;;;;;11.27;4.95;;;23.40;99.90;;;;;;5017974;28;20177;-80
2023/09/19 11:08:58;;;;;;;16.23;6.53;;;23.20;99.90;;;;;;5033813;28;20231;-81
2023/09/19 11:11:39;;;;;;;13.73;6.13;;;23.00;99.90;;;;;;5014365;28;20269;-80
2023/09/19 11:14:14;;;;;;;12.10;4.95;;;23.00;99.90;;;;;;5034951;28;20746;-81
2023/09/19 11:16:40;;;;;;;8.27;4.28;;;23.00;99.90;;;;;;5032260;28;20625;-79
2023/09/19 11:19:07;;;;;;;8.63;3.55;;;23.00;99.90;;;;;;5013204;28;20205;-81
2023/09/19 11:21:35;;;;;;;7.18;2.60;;;23.20;99.90;;;;;;5016966;28;20265;-79
2023/09/19 11:24:10;;;;;;;4.47;1.90;;;23.10;99.90;;;;;;5012658;28;20220;-79
2023/09/19 11:26:52;;;;;;;8.18;2.05;;;23.10;99.90;;;;;;5014784;28;20278;-80
2023/09/19 11:29:31;;;;;;;6.93;2.83;;;23.20;99.90;;;;;;5010343;28;20580;-80
2023/09/19 11:31:59;;;;;;;2.38;1.48;;;23.30;99.90;;;;;;5010881;28;20631;-77
2023/09/19 11:34:37;;;;;;;6.05;2.25;;;23.50;99.90;;;;;;5028847;28;20288;-80
2023/09/19 11:37:23;;;;;;;6.53;1.73;;;23.20;99.90;;;;;;5009129;28;20225;-79
2023/09/19 11:40:17;;;;;;;6.40;1.52;;;23.10;99.90;;;;;;5009672;28;20549;-77
2023/09/19 11:42:53;;;;;;;5.60;1.90;;;23.30;99.90;;;;;;5012191;28;20180;-79
2023/09/19 11:45:46;;;;;;;5.63;1.70;;;23.50;99.90;;;;;;5020902;28;20200;-79
2023/09/19 11:48:18;;;;;;;4.00;1.48;;;23.50;99.90;;;;;;5029044;28;20209;-81
2023/09/19 11:50:45;;;;;;;6.03;2.03;;;23.40;99.90;;;;;;5026223;28;20255;-78
2023/09/19 11:53:16;;;;;;;5.18;1.67;;;23.40;99.90;;;;;;4999960;28;20284;-78
2023/09/19 11:55:45;;;;;;;4.07;1.75;;;23.50;99.90;;;;;;5022889;28;20292;-79
2023/09/19 11:58:14;;;;;;;5.15;1.80;;;23.40;99.90;;;;;;5005248;28;20622;-79
2023/09/19 12:00:43;;;;;;;8.25;1.90;;;23.30;99.90;;;;;;5008782;28;20204;-79
2023/09/19 12:03:11;;;;;;;2.97;1.38;;;23.20;99.90;;;;;;5007033;28;20188;-79
2023/09/19 12:05:37;;;;;;;7.10;1.60;;;23.50;99.90;;;;;;5011463;28;20248;-79
2023/09/19 12:08:10;;;;;;;5.10;1.70;;;23.40;99.90;;;;;;5015441;28;20209;-80
2023/09/19 12:10:49;;;;;;;4.00;1.55;;;23.40;99.90;;;;;;5030141;28;20213;-80
2023/09/19 12:13:18;;;;;;;7.47;1.80;;;23.40;99.90;;;;;;5001930;28;20204;-79
2023/09/19 12:15:47;;;;;;;6.68;1.60;;;23.40;99.90;;;;;;5031869;28;20292;-80
2023/09/19 12:18:35;;;;;;;3.90;1.92;;;23.50;99.90;;;;;;5035044;28;20671;-79
2023/09/19 12:21:04;;;;;;;3.65;1.55;;;23.60;99.90;;;;;;5011778;28;20209;-77
2023/09/19 12:23:30;;;;;;;4.22;1.42;;;23.70;99.90;;;;;;5004635;28;20243;-78
2023/09/19 12:25:57;;;;;;;3.65;1.15;;;23.50;99.90;;;;;;5016780;28;20213;-79
2023/09/19 12:28:26;;;;;;;2.53;1.50;;;23.30;99.90;;;;;;5028742;28;20715;-80
2023/09/19 12:30:55;;;;;;;4.70;1.42;;;23.30;99.90;;;;;;5014205;28;20201;-79
2023/09/19 12:33:24;;;;;;;3.05;1.02;;;23.30;99.90;;;;;;5008068;28;20181;-79
2023/09/19 12:35:52;;;;;;;2.03;1.20;;;23.40;99.90;;;;;;5011111;28;20868;-78
2023/09/19 12:38:35;;;;;;;3.72;1.55;;;23.50;99.90;;;;;;5010519;28;20782;-78
2023/09/19 12:41:02;;;;;;;4.13;1.30;;;23.50;99.90;;;;;;5005881;28;20730;-80
2023/09/19 12:43:32;;;;;;;3.00;1.25;;;23.60;99.90;;;;;;5010138;28;20240;-79
2023/09/19 12:45:59;;;;;;;4.18;1.67;;;23.50;99.90;;;;;;5011429;28;20658;-79
2023/09/19 12:48:29;;;;;;;6.30;1.50;;;23.60;99.90;;;;;;5016004;28;20548;-80
2023/09/19 12:51:12;;;;;;;2.47;1.40;;;23.50;99.90;;;;;;5009283;28;20285;-79
2023/09/19 12:53:57;;;;;;;3.00;1.27;;;23.60;99.90;;;;;;5011067;28;20205;-79
2023/09/19 12:56:23;;;;;;;5.95;1.23;;;23.40;99.90;;;;;;5018395;28;20687;-79
2023/09/19 12:58:56;;;;;;;4.05;1.50;;;23.30;99.90;;;;;;5021587;28;20205;-78
2023/09/19 13:01:29;;;;;;;3.38;1.27;;;23.40;99.90;;;;;;5016851;28;20205;-80
2023/09/19 13:04:29;;;;;;;4.45;1.27;;;23.30;99.90;;;;;;5020083;28;20259;-80